Time;durP1;ratioP1;P1;durP2;ratioP2;P2;SDS_P1;SDS_P2;PMS_P1;PMS_P2;Temp;Humidity;BMP_temperature;BMP_pressure;BME280_temperature;BME280_humidity;BME280_pressure;Samples;Min_cycle;Max_cycle;Signal;HPM_P1;HPM_P2
2019/05/16 00:00:59;;;;;;;16.45;13.55;;;;;;;6.82;76.05566;95336.13;;;;
2019/05/16 00:02:00;;;;;;;16.45;13.55;;;;;;;6.82;76.05566;95336.13;;;;
2019/05/16 00:03:01;;;;;;;16.45;13.55;;;;;;;6.82;76.05566;95336.13;;;;
2019/05/16 00:04:02;;;;;;;16.45;13.55;;;;;;;6.82;76.05566;95336.13;;;;
2019/05/16 00:05:03;;;;;;;16.45;13.55;;;;;;;6.82;76.05566;95336.13;;;;
2019/05/16 00:06:05;;;;;;;16.45;13.55;;;;;;;6.82;76.05566;95336.13;;;;
2019/05/16 00:07:06;;;;;;;16.45;13.55;;;;;;;6.82;76.05566;95336.13;;;;
2019/05/16 00:08:07;;;;;;;16.45;13.55;;;;;;;6.82;76.05566;95336.13;;;;
2019/05/16 00:09:08;;;;;;;14.7;13.2;;;;;;;6.84;76.32422;95318.05;;;;
2019/05/16 00:10:09;;;;;;;14.7;13.2;;;;;;;6.84;76.32422;95318.05;;;;
2019/05/16 00:11:10;;;;;;;14.7;13.2;;;;;;;6.84;76.32422;95318.05;;;;
2019/05/16 00:12:11;;;;;;;14.7;13.2;;;;;;;6.84;76.32422;95318.05;;;;
2019/05/16 00:13:12;;;;;;;14.7;13.2;;;;;;;6.84;76.32422;95318.05;;;;
2019/05/16 00:14:13;;;;;;;14.7;13.2;;;;;;;6.84;76.32422;95318.05;;;;
2019/05/16 00:15:14;;;;;;;14.7;13.2;;;;;;;6.84;76.32422;95318.05;;;;
2019/05/16 00:16:16;;;;;;;14.7;13.2;;;;;;;6.84;76.32422;95318.05;;;;
2019/05/16 00:17:17;;;;;;;14.7;13.2;;;;;;;6.84;76.32422;95318.05;;;;
2019/05/16 00:18:18;;;;;;;14.7;13.2;;;;;;;6.84;76.32422;95318.05;;;;
2019/05/16 00:19:19;;;;;;;14.7;13.2;;;;;;;6.84;76.32422;95318.05;;;;
2019/05/16 00:20:20;;;;;;;15.2;12.85;;;;;;;6.77;76.47168;95308.28;;;;
2019/05/16 00:21:21;;;;;;;15.2;12.85;;;;;;;6.77;76.47168;95308.28;;;;
2019/05/16 00:22:22;;;;;;;15.2;12.85;;;;;;;6.77;76.47168;95308.28;;;;
2019/05/16 00:23:23;;;;;;;15.2;12.85;;;;;;;6.77;76.47168;95308.28;;;;
2019/05/16 00:24:24;;;;;;;15.2;12.85;;;;;;;6.77;76.47168;95308.28;;;;
2019/05/16 00:25:25;;;;;;;15.2;12.85;;;;;;;6.77;76.47168;95308.28;;;;
2019/05/16 00:26:26;;;;;;;15.2;12.85;;;;;;;6.77;76.47168;95308.28;;;;
2019/05/16 00:27:27;;;;;;;15.2;12.85;;;;;;;6.77;76.47168;95308.28;;;;
2019/05/16 00:28:28;;;;;;;15.2;12.85;;;;;;;6.77;76.47168;95308.28;;;;
2019/05/16 00:29:29;;;;;;;15.2;12.85;;;;;;;6.77;76.47168;95308.28;;;;
2019/05/16 00:30:31;;;;;;;14.55;13.05;;;;;;;6.73;76.69824;95288.26;;;;
2019/05/16 00:31:32;;;;;;;14.55;13.05;;;;;;;6.73;76.69824;95288.26;;;;
2019/05/16 00:32:33;;;;;;;14.55;13.05;;;;;;;6.73;76.69824;95288.26;;;;
2019/05/16 00:33:34;;;;;;;14.55;13.05;;;;;;;6.73;76.69824;95288.26;;;;
2019/05/16 00:34:35;;;;;;;14.55;13.05;;;;;;;6.73;76.69824;95288.26;;;;
2019/05/16 00:35:36;;;;;;;14.55;13.05;;;;;;;6.73;76.69824;95288.26;;;;
2019/05/16 00:36:37;;;;;;;14.55;13.05;;;;;;;6.73;76.69824;95288.26;;;;
2019/05/16 00:37:38;;;;;;;14.55;13.05;;;;;;;6.73;76.69824;95288.26;;;;
2019/05/16 00:38:39;;;;;;;14.55;13.05;;;;;;;6.73;76.69824;95288.26;;;;
2019/05/16 00:39:40;;;;;;;14.55;13.05;;;;;;;6.73;76.69824;95288.26;;;;
2019/05/16 00:40:41;;;;;;;14.55;13.05;;;;;;;6.73;76.69824;95288.26;;;;
2019/05/16 00:41:43;;;;;;;15.05;12.85;;;;;;;6.66;76.92969;95281.59;;;;
2019/05/16 00:42:44;;;;;;;15.05;12.85;;;;;;;6.66;76.92969;95281.59;;;;
2019/05/16 00:43:45;;;;;;;15.05;12.85;;;;;;;6.66;76.92969;95281.59;;;;
2019/05/16 00:44:46;;;;;;;15.05;12.85;;;;;;;6.66;76.92969;95281.59;;;;
2019/05/16 00:45:47;;;;;;;15.05;12.85;;;;;;;6.66;76.92969;95281.59;;;;
2019/05/16 00:46:48;;;;;;;15.05;12.85;;;;;;;6.66;76.92969;95281.59;;;;
2019/05/16 00:47:49;;;;;;;15.05;12.85;;;;;;;6.66;76.92969;95281.59;;;;
2019/05/16 00:48:50;;;;;;;15.05;12.85;;;;;;;6.66;76.92969;95281.59;;;;
2019/05/16 00:49:51;;;;;;;15.05;12.85;;;;;;;6.66;76.92969;95281.59;;;;
2019/05/16 00:50:52;;;;;;;15.05;12.85;;;;;;;6.66;76.92969;95281.59;;;;
2019/05/16 00:51:53;;;;;;;14.75;13.25;;;;;;;6.68;77.02832;95264.76;;;;
2019/05/16 00:52:54;;;;;;;14.75;13.25;;;;;;;6.68;77.02832;95264.76;;;;
2019/05/16 00:53:55;;;;;;;14.75;13.25;;;;;;;6.68;77.02832;95264.76;;;;
2019/05/16 00:54:56;;;;;;;14.75;13.25;;;;;;;6.68;77.02832;95264.76;;;;
2019/05/16 00:55:57;;;;;;;14.75;13.25;;;;;;;6.68;77.02832;95264.76;;;;
2019/05/16 00:56:58;;;;;;;14.75;13.25;;;;;;;6.68;77.02832;95264.76;;;;
2019/05/16 00:58:00;;;;;;;14.75;13.25;;;;;;;6.68;77.02832;95264.76;;;;
2019/05/16 00:59:01;;;;;;;14.75;13.25;;;;;;;6.68;77.02832;95264.76;;;;
2019/05/16 01:00:02;;;;;;;14.75;13.25;;;;;;;6.68;77.02832;95264.76;;;;
2019/05/16 01:01:13;;;;;;;14.75;13.25;;;;;;;6.68;77.02832;95264.76;;;;
2019/05/16 01:02:14;;;;;;;14;12.45;;;;;;;6.6;77.16016;95258.82;;;;
2019/05/16 01:03:15;;;;;;;14;12.45;;;;;;;6.6;77.16016;95258.82;;;;
2019/05/16 01:04:16;;;;;;;14;12.45;;;;;;;6.6;77.16016;95258.82;;;;
2019/05/16 01:05:17;;;;;;;14;12.45;;;;;;;6.6;77.16016;95258.82;;;;
2019/05/16 01:06:18;;;;;;;14;12.45;;;;;;;6.6;77.16016;95258.82;;;;
2019/05/16 01:07:19;;;;;;;14;12.45;;;;;;;6.6;77.16016;95258.82;;;;
2019/05/16 01:08:21;;;;;;;14;12.45;;;;;;;6.6;77.16016;95258.82;;;;
2019/05/16 01:09:22;;;;;;;14;12.45;;;;;;;6.6;77.16016;95258.82;;;;
2019/05/16 01:10:23;;;;;;;14;12.45;;;;;;;6.6;77.16016;95258.82;;;;
2019/05/16 01:11:25;;;;;;;14;12.45;;;;;;;6.6;77.16016;95258.82;;;;
2019/05/16 01:12:26;;;;;;;14;12.45;;;;;;;6.6;77.16016;95258.82;;;;
2019/05/16 01:13:27;;;;;;;15.6;12.25;;;;;;;6.51;77.37793;95248.44;;;;
2019/05/16 01:14:28;;;;;;;15.6;12.25;;;;;;;6.51;77.37793;95248.44;;;;
2019/05/16 01:15:29;;;;;;;15.6;12.25;;;;;;;6.51;77.37793;95248.44;;;;
2019/05/16 01:16:30;;;;;;;15.6;12.25;;;;;;;6.51;77.37793;95248.44;;;;
2019/05/16 01:17:31;;;;;;;15.6;12.25;;;;;;;6.51;77.37793;95248.44;;;;
2019/05/16 01:18:33;;;;;;;15.6;12.25;;;;;;;6.51;77.37793;95248.44;;;;
2019/05/16 01:19:34;;;;;;;15.6;12.25;;;;;;;6.51;77.37793;95248.44;;;;
2019/05/16 01:20:35;;;;;;;15.6;12.25;;;;;;;6.51;77.37793;95248.44;;;;
2019/05/16 01:21:36;;;;;;;15.6;12.25;;;;;;;6.51;77.37793;95248.44;;;;
2019/05/16 01:22:37;;;;;;;15.6;12.25;;;;;;;6.51;77.37793;95248.44;;;;
2019/05/16 01:23:38;;;;;;;15.35;13;;;;;;;6.27;77.56836;95234.78;;;;
2019/05/16 01:24:39;;;;;;;15.35;13;;;;;;;6.27;77.56836;95234.78;;;;
2019/05/16 01:25:40;;;;;;;15.35;13;;;;;;;6.27;77.56836;95234.78;;;;
2019/05/16 01:26:41;;;;;;;15.35;13;;;;;;;6.27;77.56836;95234.78;;;;
2019/05/16 01:27:43;;;;;;;15.35;13;;;;;;;6.27;77.56836;95234.78;;;;
2019/05/16 01:28:44;;;;;;;15.35;13;;;;;;;6.27;77.56836;95234.78;;;;
2019/05/16 01:29:45;;;;;;;15.35;13;;;;;;;6.27;77.56836;95234.78;;;;
2019/05/16 01:30:46;;;;;;;15.35;13;;;;;;;6.27;77.56836;95234.78;;;;
2019/05/16 01:31:47;;;;;;;15.35;13;;;;;;;6.27;77.56836;95234.78;;;;
2019/05/16 01:32:48;;;;;;;15.35;13;;;;;;;6.27;77.56836;95234.78;;;;
2019/05/16 01:33:49;;;;;;;16.55;14.4;;;;;;;6.16;77.91895;95226.97;;;;
2019/05/16 01:34:50;;;;;;;16.55;14.4;;;;;;;6.16;77.91895;95226.97;;;;
2019/05/16 01:35:52;;;;;;;16.55;14.4;;;;;;;6.16;77.91895;95226.97;;;;
2019/05/16 01:36:53;;;;;;;16.55;14.4;;;;;;;6.16;77.91895;95226.97;;;;
2019/05/16 01:37:54;;;;;;;16.55;14.4;;;;;;;6.16;77.91895;95226.97;;;;
2019/05/16 01:38:55;;;;;;;16.55;14.4;;;;;;;6.16;77.91895;95226.97;;;;
2019/05/16 01:39:56;;;;;;;16.55;14.4;;;;;;;6.16;77.91895;95226.97;;;;
2019/05/16 01:40:57;;;;;;;16.55;14.4;;;;;;;6.16;77.91895;95226.97;;;;
2019/05/16 01:41:59;;;;;;;16.55;14.4;;;;;;;6.16;77.91895;95226.97;;;;
2019/05/16 01:43:00;;;;;;;16.55;14.4;;;;;;;6.16;77.91895;95226.97;;;;
2019/05/16 01:44:01;;;;;;;16.55;14.4;;;;;;;6.16;77.91895;95226.97;;;;
2019/05/16 01:45:02;;;;;;;17.3;14.15;;;;;;;6.05;78.15234;95210.61;;;;
2019/05/16 01:46:03;;;;;;;17.3;14.15;;;;;;;6.05;78.15234;95210.61;;;;
2019/05/16 01:47:04;;;;;;;17.3;14.15;;;;;;;6.05;78.15234;95210.61;;;;
2019/05/16 01:48:05;;;;;;;17.3;14.15;;;;;;;6.05;78.15234;95210.61;;;;
2019/05/16 01:49:06;;;;;;;17.3;14.15;;;;;;;6.05;78.15234;95210.61;;;;
2019/05/16 01:50:08;;;;;;;17.3;14.15;;;;;;;6.05;78.15234;95210.61;;;;
2019/05/16 01:51:09;;;;;;;17.3;14.15;;;;;;;6.05;78.15234;95210.61;;;;
2019/05/16 01:52:10;;;;;;;17.3;14.15;;;;;;;6.05;78.15234;95210.61;;;;
2019/05/16 01:53:11;;;;;;;17.3;14.15;;;;;;;6.05;78.15234;95210.61;;;;
2019/05/16 01:54:12;;;;;;;17.3;14.15;;;;;;;6.05;78.15234;95210.61;;;;
2019/05/16 01:55:13;;;;;;;18.05;14.95;;;;;;;6.05;78.4375;95199.06;;;;
2019/05/16 01:56:14;;;;;;;18.05;14.95;;;;;;;6.05;78.4375;95199.06;;;;
2019/05/16 01:57:16;;;;;;;18.05;14.95;;;;;;;6.05;78.4375;95199.06;;;;
2019/05/16 01:58:17;;;;;;;18.05;14.95;;;;;;;6.05;78.4375;95199.06;;;;
2019/05/16 01:59:18;;;;;;;18.05;14.95;;;;;;;6.05;78.4375;95199.06;;;;
2019/05/16 02:00:19;;;;;;;18.05;14.95;;;;;;;6.05;78.4375;95199.06;;;;
2019/05/16 02:01:20;;;;;;;18.05;14.95;;;;;;;6.05;78.4375;95199.06;;;;
2019/05/16 02:02:21;;;;;;;18.05;14.95;;;;;;;6.05;78.4375;95199.06;;;;
2019/05/16 02:03:22;;;;;;;18.05;14.95;;;;;;;6.05;78.4375;95199.06;;;;
2019/05/16 02:04:24;;;;;;;18.05;14.95;;;;;;;6.05;78.4375;95199.06;;;;
2019/05/16 02:05:25;;;;;;;17.95;14.65;;;;;;;6.02;78.48535;95191.44;;;;
2019/05/16 02:06:26;;;;;;;17.95;14.65;;;;;;;6.02;78.48535;95191.44;;;;
2019/05/16 02:07:27;;;;;;;17.95;14.65;;;;;;;6.02;78.48535;95191.44;;;;
2019/05/16 02:08:28;;;;;;;17.95;14.65;;;;;;;6.02;78.48535;95191.44;;;;
2019/05/16 02:09:29;;;;;;;17.95;14.65;;;;;;;6.02;78.48535;95191.44;;;;
2019/05/16 02:10:30;;;;;;;17.95;14.65;;;;;;;6.02;78.48535;95191.44;;;;
2019/05/16 02:11:31;;;;;;;17.95;14.65;;;;;;;6.02;78.48535;95191.44;;;;
2019/05/16 02:12:33;;;;;;;17.95;14.65;;;;;;;6.02;78.48535;95191.44;;;;
2019/05/16 02:13:34;;;;;;;17.95;14.65;;;;;;;6.02;78.48535;95191.44;;;;
2019/05/16 02:14:35;;;;;;;17.95;14.65;;;;;;;6.02;78.48535;95191.44;;;;
2019/05/16 02:15:36;;;;;;;17.95;14.65;;;;;;;6.02;78.48535;95191.44;;;;
2019/05/16 02:16:37;;;;;;;17.8;15.05;;;;;;;6.04;78.6582;95180;;;;
2019/05/16 02:17:38;;;;;;;17.8;15.05;;;;;;;6.04;78.6582;95180;;;;
2019/05/16 02:18:39;;;;;;;17.8;15.05;;;;;;;6.04;78.6582;95180;;;;
2019/05/16 02:19:40;;;;;;;17.8;15.05;;;;;;;6.04;78.6582;95180;;;;
2019/05/16 02:20:41;;;;;;;17.8;15.05;;;;;;;6.04;78.6582;95180;;;;
2019/05/16 02:21:42;;;;;;;17.8;15.05;;;;;;;6.04;78.6582;95180;;;;
2019/05/16 02:22:44;;;;;;;17.8;15.05;;;;;;;6.04;78.6582;95180;;;;
2019/05/16 02:23:45;;;;;;;17.8;15.05;;;;;;;6.04;78.6582;95180;;;;
2019/05/16 02:24:46;;;;;;;17.8;15.05;;;;;;;6.04;78.6582;95180;;;;
2019/05/16 02:25:47;;;;;;;17.8;15.05;;;;;;;6.04;78.6582;95180;;;;
2019/05/16 02:26:48;;;;;;;17.95;15.95;;;;;;;5.98;78.71094;95170.11;;;;
2019/05/16 02:27:49;;;;;;;17.95;15.95;;;;;;;5.98;78.71094;95170.11;;;;
2019/05/16 02:28:50;;;;;;;17.95;15.95;;;;;;;5.98;78.71094;95170.11;;;;
2019/05/16 02:29:51;;;;;;;17.95;15.95;;;;;;;5.98;78.71094;95170.11;;;;
2019/05/16 02:30:53;;;;;;;17.95;15.95;;;;;;;5.98;78.71094;95170.11;;;;
2019/05/16 02:31:54;;;;;;;17.95;15.95;;;;;;;5.98;78.71094;95170.11;;;;
2019/05/16 02:32:55;;;;;;;17.95;15.95;;;;;;;5.98;78.71094;95170.11;;;;
2019/05/16 02:33:56;;;;;;;17.95;15.95;;;;;;;5.98;78.71094;95170.11;;;;
2019/05/16 02:34:58;;;;;;;17.95;15.95;;;;;;;5.98;78.71094;95170.11;;;;
2019/05/16 02:35:59;;;;;;;17.95;15.95;;;;;;;5.98;78.71094;95170.11;;;;
2019/05/16 02:37:00;;;;;;;17.95;15.95;;;;;;;5.98;78.71094;95170.11;;;;
2019/05/16 02:38:01;;;;;;;21;15.7;;;;;;;6;78.84375;95159.92;;;;
2019/05/16 02:39:03;;;;;;;21;15.7;;;;;;;6;78.84375;95159.92;;;;
2019/05/16 02:40:05;;;;;;;21;15.7;;;;;;;6;78.84375;95159.92;;;;
2019/05/16 02:41:07;;;;;;;21;15.7;;;;;;;6;78.84375;95159.92;;;;
2019/05/16 02:42:08;;;;;;;21;15.7;;;;;;;6;78.84375;95159.92;;;;
2019/05/16 02:43:09;;;;;;;21;15.7;;;;;;;6;78.84375;95159.92;;;;
2019/05/16 02:44:10;;;;;;;21;15.7;;;;;;;6;78.84375;95159.92;;;;
2019/05/16 02:45:11;;;;;;;21;15.7;;;;;;;6;78.84375;95159.92;;;;
2019/05/16 02:46:12;;;;;;;21;15.7;;;;;;;6;78.84375;95159.92;;;;
2019/05/16 02:47:13;;;;;;;21;15.7;;;;;;;6;78.84375;95159.92;;;;
2019/05/16 02:48:15;;;;;;;18;16.1;;;;;;;5.96;78.91895;95145.29;;;;
2019/05/16 02:49:16;;;;;;;18;16.1;;;;;;;5.96;78.91895;95145.29;;;;
2019/05/16 02:50:17;;;;;;;18;16.1;;;;;;;5.96;78.91895;95145.29;;;;
2019/05/16 02:51:18;;;;;;;18;16.1;;;;;;;5.96;78.91895;95145.29;;;;
2019/05/16 02:52:19;;;;;;;18;16.1;;;;;;;5.96;78.91895;95145.29;;;;
2019/05/16 02:53:20;;;;;;;18;16.1;;;;;;;5.96;78.91895;95145.29;;;;
2019/05/16 02:54:21;;;;;;;18;16.1;;;;;;;5.96;78.91895;95145.29;;;;
2019/05/16 02:55:23;;;;;;;18;16.1;;;;;;;5.96;78.91895;95145.29;;;;
2019/05/16 02:56:24;;;;;;;18;16.1;;;;;;;5.96;78.91895;95145.29;;;;
2019/05/16 02:57:25;;;;;;;18;16.1;;;;;;;5.96;78.91895;95145.29;;;;
2019/05/16 02:58:26;;;;;;;16.65;14.85;;;;;;;5.97;79.02539;95124.27;;;;
2019/05/16 02:59:27;;;;;;;16.65;14.85;;;;;;;5.97;79.02539;95124.27;;;;
2019/05/16 03:00:28;;;;;;;16.65;14.85;;;;;;;5.97;79.02539;95124.27;;;;
2019/05/16 03:01:32;;;;;;;16.65;14.85;;;;;;;5.97;79.02539;95124.27;;;;
2019/05/16 03:02:33;;;;;;;16.65;14.85;;;;;;;5.97;79.02539;95124.27;;;;
2019/05/16 03:03:35;;;;;;;16.65;14.85;;;;;;;5.97;79.02539;95124.27;;;;
2019/05/16 03:04:36;;;;;;;16.65;14.85;;;;;;;5.97;79.02539;95124.27;;;;
2019/05/16 03:05:37;;;;;;;16.65;14.85;;;;;;;5.97;79.02539;95124.27;;;;
2019/05/16 03:06:38;;;;;;;16.65;14.85;;;;;;;5.97;79.02539;95124.27;;;;
2019/05/16 03:07:39;;;;;;;16.65;14.85;;;;;;;5.97;79.02539;95124.27;;;;
2019/05/16 03:08:40;;;;;;;16.65;14.85;;;;;;;5.97;79.02539;95124.27;;;;
2019/05/16 03:09:41;;;;;;;16.65;14.85;;;;;;;5.97;79.02539;95124.27;;;;
2019/05/16 03:10:43;;;;;;;16.65;14.85;;;;;;;5.97;79.02539;95124.27;;;;
2019/05/16 03:11:44;;;;;;;16.65;14.85;;;;;;;5.97;79.02539;95124.27;;;;
2019/05/16 03:12:45;;;;;;;16.65;14.85;;;;;;;5.97;79.02539;95124.27;;;;
2019/05/16 03:13:46;;;;;;;16.65;14.85;;;;;;;5.97;79.02539;95124.27;;;;
2019/05/16 03:14:47;;;;;;;16.65;14.85;;;;;;;5.97;79.02539;95124.27;;;;
2019/05/16 03:15:49;;;;;;;16.65;14.85;;;;;;;5.97;79.02539;95124.27;;;;
2019/05/16 03:16:50;;;;;;;16.65;14.85;;;;;;;5.97;79.02539;95124.27;;;;
2019/05/16 03:17:51;;;;;;;16.65;14.85;;;;;;;5.97;79.02539;95124.27;;;;
2019/05/16 03:18:52;;;;;;;16.65;14.85;;;;;;;5.97;79.02539;95124.27;;;;
2019/05/16 03:19:54;;;;;;;16.65;14.85;;;;;;;5.97;79.02539;95124.27;;;;
2019/05/16 03:20:55;;;;;;;16.65;14.85;;;;;;;5.97;79.02539;95124.27;;;;
2019/05/16 03:21:56;;;;;;;16.65;14.85;;;;;;;5.97;79.02539;95124.27;;;;
2019/05/16 03:22:57;;;;;;;16.65;14.85;;;;;;;5.97;79.02539;95124.27;;;;
2019/05/16 03:23:58;;;;;;;16.65;14.85;;;;;;;5.97;79.02539;95124.27;;;;
2019/05/16 03:25:00;;;;;;;16.65;14.85;;;;;;;5.97;79.02539;95124.27;;;;
2019/05/16 03:26:01;;;;;;;16.65;14.85;;;;;;;5.97;79.02539;95124.27;;;;
2019/05/16 03:27:02;;;;;;;16.65;14.85;;;;;;;5.97;79.02539;95124.27;;;;
2019/05/16 03:28:03;;;;;;;16.65;14.85;;;;;;;5.97;79.02539;95124.27;;;;
2019/05/16 03:29:04;;;;;;;16.65;14.85;;;;;;;5.97;79.02539;95124.27;;;;
2019/05/16 03:30:05;;;;;;;16.65;14.85;;;;;;;5.97;79.02539;95124.27;;;;
2019/05/16 03:31:06;;;;;;;18.75;16.5;;;;;;;5.53;79.5791;95092.41;;;;
2019/05/16 03:32:07;;;;;;;18.75;16.5;;;;;;;5.53;79.5791;95092.41;;;;
2019/05/16 03:33:08;;;;;;;18.75;16.5;;;;;;;5.53;79.5791;95092.41;;;;
2019/05/16 03:34:09;;;;;;;18.75;16.5;;;;;;;5.53;79.5791;95092.41;;;;
2019/05/16 03:35:10;;;;;;;18.75;16.5;;;;;;;5.53;79.5791;95092.41;;;;
2019/05/16 03:36:11;;;;;;;18.75;16.5;;;;;;;5.53;79.5791;95092.41;;;;
2019/05/16 03:37:13;;;;;;;18.75;16.5;;;;;;;5.53;79.5791;95092.41;;;;
2019/05/16 03:38:14;;;;;;;18.75;16.5;;;;;;;5.53;79.5791;95092.41;;;;
2019/05/16 03:39:15;;;;;;;18.75;16.5;;;;;;;5.53;79.5791;95092.41;;;;
2019/05/16 03:40:16;;;;;;;18.75;16.5;;;;;;;5.53;79.5791;95092.41;;;;
2019/05/16 03:41:22;;;;;;;18.85;16.05;;;;;;;5.29;79.97949;95086.28;;;;
2019/05/16 03:42:23;;;;;;;18.85;16.05;;;;;;;5.29;79.97949;95086.28;;;;
2019/05/16 03:43:24;;;;;;;18.85;16.05;;;;;;;5.29;79.97949;95086.28;;;;
2019/05/16 03:44:25;;;;;;;18.85;16.05;;;;;;;5.29;79.97949;95086.28;;;;
2019/05/16 03:45:26;;;;;;;18.85;16.05;;;;;;;5.29;79.97949;95086.28;;;;
2019/05/16 03:46:27;;;;;;;18.85;16.05;;;;;;;5.29;79.97949;95086.28;;;;
2019/05/16 03:47:28;;;;;;;18.85;16.05;;;;;;;5.29;79.97949;95086.28;;;;
2019/05/16 03:48:29;;;;;;;18.85;16.05;;;;;;;5.29;79.97949;95086.28;;;;
2019/05/16 03:49:30;;;;;;;18.85;16.05;;;;;;;5.29;79.97949;95086.28;;;;
2019/05/16 03:50:31;;;;;;;18.85;16.05;;;;;;;5.29;79.97949;95086.28;;;;
2019/05/16 03:51:32;;;;;;;18.85;16.05;;;;;;;5.29;79.97949;95086.28;;;;
2019/05/16 03:52:33;;;;;;;18.85;16.05;;;;;;;5.29;79.97949;95086.28;;;;
2019/05/16 03:53:34;;;;;;;18.85;16.05;;;;;;;5.29;79.97949;95086.28;;;;
2019/05/16 03:54:35;;;;;;;18.85;16.05;;;;;;;5.29;79.97949;95086.28;;;;
2019/05/16 03:55:37;;;;;;;18.85;16.05;;;;;;;5.29;79.97949;95086.28;;;;
2019/05/16 03:56:38;;;;;;;18.85;16.05;;;;;;;5.29;79.97949;95086.28;;;;
2019/05/16 03:57:39;;;;;;;18.85;16.05;;;;;;;5.29;79.97949;95086.28;;;;
2019/05/16 03:58:40;;;;;;;18.85;16.05;;;;;;;5.29;79.97949;95086.28;;;;
2019/05/16 03:59:41;;;;;;;18.85;16.05;;;;;;;5.29;79.97949;95086.28;;;;
2019/05/16 04:00:42;;;;;;;18.85;16.05;;;;;;;5.29;79.97949;95086.28;;;;
2019/05/16 04:01:47;;;;;;;18.85;16.05;;;;;;;5.29;79.97949;95086.28;;;;
2019/05/16 04:02:48;;;;;;;18.85;16.05;;;;;;;5.29;79.97949;95086.28;;;;
2019/05/16 04:03:49;;;;;;;18.85;16.05;;;;;;;5.29;79.97949;95086.28;;;;
2019/05/16 04:04:50;;;;;;;18.85;16.05;;;;;;;5.29;79.97949;95086.28;;;;
2019/05/16 04:05:51;;;;;;;18.85;16.05;;;;;;;5.29;79.97949;95086.28;;;;
2019/05/16 04:06:52;;;;;;;18.85;16.05;;;;;;;5.29;79.97949;95086.28;;;;
2019/05/16 04:07:54;;;;;;;18.85;16.05;;;;;;;5.29;79.97949;95086.28;;;;
2019/05/16 04:08:55;;;;;;;18.85;16.05;;;;;;;5.29;79.97949;95086.28;;;;
2019/05/16 04:09:56;;;;;;;18.85;16.05;;;;;;;5.29;79.97949;95086.28;;;;
2019/05/16 04:10:57;;;;;;;18.85;16.05;;;;;;;5.29;79.97949;95086.28;;;;
2019/05/16 04:11:58;;;;;;;18.85;16.05;;;;;;;5.29;79.97949;95086.28;;;;
2019/05/16 04:12:59;;;;;;;18.85;16.05;;;;;;;5.29;79.97949;95086.28;;;;
2019/05/16 04:14:00;;;;;;;18.85;16.05;;;;;;;5.29;79.97949;95086.28;;;;
2019/05/16 04:15:01;;;;;;;18.85;16.05;;;;;;;5.29;79.97949;95086.28;;;;
2019/05/16 04:16:03;;;;;;;18.85;16.05;;;;;;;5.29;79.97949;95086.28;;;;
2019/05/16 04:17:04;;;;;;;18.85;16.05;;;;;;;5.29;79.97949;95086.28;;;;
2019/05/16 04:18:05;;;;;;;18.85;16.05;;;;;;;5.29;79.97949;95086.28;;;;
2019/05/16 04:19:07;;;;;;;18.85;16.05;;;;;;;5.29;79.97949;95086.28;;;;
2019/05/16 04:20:08;;;;;;;18.85;16.05;;;;;;;5.29;79.97949;95086.28;;;;
2019/05/16 04:21:09;;;;;;;18.85;16.05;;;;;;;5.29;79.97949;95086.28;;;;
2019/05/16 04:22:10;;;;;;;18.85;16.05;;;;;;;5.29;79.97949;95086.28;;;;
2019/05/16 04:23:12;;;;;;;18.85;16.05;;;;;;;5.29;79.97949;95086.28;;;;
2019/05/16 04:24:14;;;;;;;18.85;16.05;;;;;;;5.29;79.97949;95086.28;;;;
2019/05/16 04:25:15;;;;;;;18.85;16.05;;;;;;;5.29;79.97949;95086.28;;;;
2019/05/16 04:34:16;;;;;;;20.9;18.5;;;;;;;5.32;80.72266;95058.28;;;;
2019/05/16 04:35:17;;;;;;;20.9;18.5;;;;;;;5.32;80.72266;95058.28;;;;
2019/05/16 04:36:19;;;;;;;20.9;18.5;;;;;;;5.32;80.72266;95058.28;;;;
2019/05/16 04:37:20;;;;;;;20.9;18.5;;;;;;;5.32;80.72266;95058.28;;;;
2019/05/16 04:38:21;;;;;;;20.9;18.5;;;;;;;5.32;80.72266;95058.28;;;;
2019/05/16 04:39:22;;;;;;;20.9;18.5;;;;;;;5.32;80.72266;95058.28;;;;
2019/05/16 04:40:23;;;;;;;20.9;18.5;;;;;;;5.32;80.72266;95058.28;;;;
2019/05/16 04:41:24;;;;;;;20.9;18.5;;;;;;;5.32;80.72266;95058.28;;;;
2019/05/16 04:42:25;;;;;;;20.9;18.5;;;;;;;5.32;80.72266;95058.28;;;;
2019/05/16 04:43:26;;;;;;;20.9;18.5;;;;;;;5.32;80.72266;95058.28;;;;
2019/05/16 04:44:27;;;;;;;20.9;18.5;;;;;;;5.32;80.72266;95058.28;;;;
2019/05/16 04:45:28;;;;;;;20.9;18.5;;;;;;;5.32;80.72266;95058.28;;;;
2019/05/16 04:46:29;;;;;;;20.9;18.5;;;;;;;5.32;80.72266;95058.28;;;;
2019/05/16 04:47:30;;;;;;;20.9;18.5;;;;;;;5.32;80.72266;95058.28;;;;
2019/05/16 04:48:31;;;;;;;20.9;18.5;;;;;;;5.32;80.72266;95058.28;;;;
2019/05/16 04:49:33;;;;;;;20.9;18.5;;;;;;;5.32;80.72266;95058.28;;;;
2019/05/16 04:50:34;;;;;;;20.9;18.5;;;;;;;5.32;80.72266;95058.28;;;;
2019/05/16 04:51:35;;;;;;;20.9;18.5;;;;;;;5.32;80.72266;95058.28;;;;
2019/05/16 04:52:36;;;;;;;20.9;18.5;;;;;;;5.32;80.72266;95058.28;;;;
2019/05/16 04:53:37;;;;;;;20.9;18.5;;;;;;;5.32;80.72266;95058.28;;;;
2019/05/16 04:54:38;;;;;;;20.9;18.5;;;;;;;5.32;80.72266;95058.28;;;;
2019/05/16 04:55:39;;;;;;;20.9;18.5;;;;;;;5.32;80.72266;95058.28;;;;
2019/05/16 04:56:40;;;;;;;20.9;18.5;;;;;;;5.32;80.72266;95058.28;;;;
2019/05/16 04:57:41;;;;;;;20.9;18.5;;;;;;;5.32;80.72266;95058.28;;;;
2019/05/16 04:58:42;;;;;;;20.9;18.5;;;;;;;5.32;80.72266;95058.28;;;;
2019/05/16 04:59:43;;;;;;;20.9;18.5;;;;;;;5.32;80.72266;95058.28;;;;
2019/05/16 05:00:44;;;;;;;20.9;18.5;;;;;;;5.32;80.72266;95058.28;;;;
2019/05/16 05:01:45;;;;;;;20.9;18.5;;;;;;;5.32;80.72266;95058.28;;;;
2019/05/16 05:02:46;;;;;;;20.9;18.5;;;;;;;5.32;80.72266;95058.28;;;;
2019/05/16 05:03:47;;;;;;;20.9;18.5;;;;;;;5.32;80.72266;95058.28;;;;
2019/05/16 05:04:48;;;;;;;20.9;18.5;;;;;;;5.32;80.72266;95058.28;;;;
2019/05/16 05:05:50;;;;;;;20.9;18.5;;;;;;;5.32;80.72266;95058.28;;;;
2019/05/16 05:06:51;;;;;;;20.9;18.5;;;;;;;5.32;80.72266;95058.28;;;;
2019/05/16 05:07:52;;;;;;;20.9;18.5;;;;;;;5.32;80.72266;95058.28;;;;
2019/05/16 05:08:53;;;;;;;20.9;18.5;;;;;;;5.32;80.72266;95058.28;;;;
2019/05/16 05:09:54;;;;;;;20.9;18.5;;;;;;;5.32;80.72266;95058.28;;;;
2019/05/16 05:10:55;;;;;;;20.9;18.5;;;;;;;5.32;80.72266;95058.28;;;;
2019/05/16 05:11:56;;;;;;;20.9;18.5;;;;;;;5.32;80.72266;95058.28;;;;
2019/05/16 05:12:57;;;;;;;20.9;18.5;;;;;;;5.32;80.72266;95058.28;;;;
2019/05/16 05:13:58;;;;;;;20.9;18.5;;;;;;;5.32;80.72266;95058.28;;;;
2019/05/16 05:14:59;;;;;;;20.9;18.5;;;;;;;5.32;80.72266;95058.28;;;;
2019/05/16 05:16:01;;;;;;;20.9;18.5;;;;;;;5.32;80.72266;95058.28;;;;
2019/05/16 05:17:02;;;;;;;20.9;18.5;;;;;;;5.32;80.72266;95058.28;;;;
2019/05/16 05:18:03;;;;;;;20.9;18.5;;;;;;;5.32;80.72266;95058.28;;;;
2019/05/16 06:09:07;;;;;;;17.05;15.35;;;;;;;8.51;78.59668;95067.94;;;;
2019/05/16 06:10:08;;;;;;;17.05;15.35;;;;;;;8.51;78.59668;95067.94;;;;
2019/05/16 06:11:09;;;;;;;17.05;15.35;;;;;;;8.51;78.59668;95067.94;;;;
2019/05/16 06:12:10;;;;;;;17.05;15.35;;;;;;;8.51;78.59668;95067.94;;;;
2019/05/16 06:13:11;;;;;;;17.05;15.35;;;;;;;8.51;78.59668;95067.94;;;;
2019/05/16 06:14:12;;;;;;;17.05;15.35;;;;;;;8.51;78.59668;95067.94;;;;
2019/05/16 06:15:13;;;;;;;17.05;15.35;;;;;;;8.51;78.59668;95067.94;;;;
2019/05/16 06:16:14;;;;;;;17.05;15.35;;;;;;;8.51;78.59668;95067.94;;;;
2019/05/16 06:17:15;;;;;;;17.05;15.35;;;;;;;8.51;78.59668;95067.94;;;;
2019/05/16 06:18:17;;;;;;;17.05;15.35;;;;;;;8.51;78.59668;95067.94;;;;
2019/05/16 06:19:18;;;;;;;17.05;15.35;;;;;;;8.51;78.59668;95067.94;;;;
2019/05/16 06:20:19;;;;;;;17.05;15.35;;;;;;;8.51;78.59668;95067.94;;;;
2019/05/16 06:21:20;;;;;;;17.05;15.35;;;;;;;8.51;78.59668;95067.94;;;;
2019/05/16 06:22:21;;;;;;;17.05;15.35;;;;;;;8.51;78.59668;95067.94;;;;
2019/05/16 06:23:22;;;;;;;17.05;15.35;;;;;;;8.51;78.59668;95067.94;;;;
2019/05/16 06:24:23;;;;;;;17.05;15.35;;;;;;;8.51;78.59668;95067.94;;;;
2019/05/16 06:25:24;;;;;;;17.05;15.35;;;;;;;8.51;78.59668;95067.94;;;;
2019/05/16 06:26:25;;;;;;;17.05;15.35;;;;;;;8.51;78.59668;95067.94;;;;
2019/05/16 06:27:27;;;;;;;17.05;15.35;;;;;;;8.51;78.59668;95067.94;;;;
2019/05/16 06:28:28;;;;;;;17.05;15.35;;;;;;;8.51;78.59668;95067.94;;;;
2019/05/16 06:29:29;;;;;;;17.05;15.35;;;;;;;8.51;78.59668;95067.94;;;;
2019/05/16 06:30:30;;;;;;;16.9;15.1;;;;;;;8.72;78.19922;95062.06;;;;
2019/05/16 06:31:31;;;;;;;16.9;15.1;;;;;;;8.72;78.19922;95062.06;;;;
2019/05/16 06:32:32;;;;;;;16.9;15.1;;;;;;;8.72;78.19922;95062.06;;;;
2019/05/16 06:33:33;;;;;;;16.9;15.1;;;;;;;8.72;78.19922;95062.06;;;;
2019/05/16 06:34:34;;;;;;;16.9;15.1;;;;;;;8.72;78.19922;95062.06;;;;
2019/05/16 06:35:36;;;;;;;16.9;15.1;;;;;;;8.72;78.19922;95062.06;;;;
2019/05/16 06:36:37;;;;;;;16.9;15.1;;;;;;;8.72;78.19922;95062.06;;;;
2019/05/16 06:37:38;;;;;;;16.9;15.1;;;;;;;8.72;78.19922;95062.06;;;;
2019/05/16 06:38:39;;;;;;;16.9;15.1;;;;;;;8.72;78.19922;95062.06;;;;
2019/05/16 06:39:40;;;;;;;16.9;15.1;;;;;;;8.72;78.19922;95062.06;;;;
2019/05/16 06:40:41;;;;;;;16.9;15.1;;;;;;;8.72;78.19922;95062.06;;;;
2019/05/16 06:41:43;;;;;;;16.9;15.1;;;;;;;8.72;78.19922;95062.06;;;;
2019/05/16 06:42:44;;;;;;;16.9;15.1;;;;;;;8.72;78.19922;95062.06;;;;
2019/05/16 06:43:45;;;;;;;16.9;15.1;;;;;;;8.72;78.19922;95062.06;;;;
2019/05/16 06:44:46;;;;;;;16.9;15.1;;;;;;;8.72;78.19922;95062.06;;;;
2019/05/16 06:45:47;;;;;;;16.9;15.1;;;;;;;8.72;78.19922;95062.06;;;;